createdAt,value
2023-03-31T00:00:58.230Z,63.14
2023-03-31T00:03:26.598Z,62.41
2023-03-31T00:05:58.793Z,62.34
2023-03-31T00:08:30.866Z,62.82
2023-03-31T00:11:01.367Z,62.62
2023-03-31T00:13:30.599Z,63.03
2023-03-31T00:15:59.510Z,64.09
2023-03-31T00:18:27.938Z,64.55
2023-03-31T00:21:07.176Z,63.41
2023-03-31T00:23:35.646Z,62.80
2023-03-31T00:26:03.870Z,64.65
2023-03-31T00:28:31.985Z,65.47
2023-03-31T00:31:02.385Z,68.29
2023-03-31T00:33:30.803Z,69.36
2023-03-31T00:36:06.466Z,69.00
2023-03-31T00:38:35.216Z,69.83
2023-03-31T00:41:04.222Z,71.97
2023-03-31T00:43:34.459Z,72.66
2023-03-31T00:46:08.837Z,74.03
2023-03-31T00:48:39.325Z,72.95
2023-03-31T00:51:09.129Z,73.22
2023-03-31T00:53:38.719Z,74.41
2023-03-31T00:56:10.544Z,74.93
2023-03-31T00:58:43.892Z,75.38
2023-03-31T01:01:17.339Z,77.19
2023-03-31T01:03:46.913Z,78.74
2023-03-31T01:06:19.957Z,78.60
2023-03-31T01:08:51.244Z,78.88
2023-03-31T01:11:22.130Z,79.82
2023-03-31T01:13:52.747Z,78.78
2023-03-31T01:16:20.724Z,79.19
2023-03-31T01:18:49.846Z,79.41
2023-03-31T01:22:05.616Z,79.69
2023-03-31T01:25:01.783Z,79.22
2023-03-31T01:27:54.172Z,80.89
2023-03-31T01:30:42.781Z,79.50
2023-03-31T01:33:35.756Z,79.60
2023-03-31T01:36:27.791Z,83.37
2023-03-31T01:39:33.951Z,85.99
2023-03-31T01:42:11.307Z,86.25
2023-03-31T01:44:46.408Z,85.15
2023-03-31T01:47:23.158Z,86.75
2023-03-31T01:49:58.626Z,86.71
2023-03-31T01:52:33.790Z,87.53
2023-03-31T01:55:09.057Z,89.43
2023-03-31T01:57:42.338Z,91.51
2023-03-31T02:00:13.596Z,92.72
2023-03-31T02:02:47.455Z,92.98
2023-03-31T02:07:52.906Z,95.23
2023-03-31T02:10:22.916Z,95.61
2023-03-31T02:12:54.846Z,95.54
2023-03-31T02:15:27.730Z,97.07
2023-03-31T02:18:00.150Z,97.88
2023-03-31T02:20:32.658Z,96.42
2023-03-31T02:23:01.176Z,98.68
2023-03-31T02:25:37.316Z,97.71
2023-03-31T02:28:11.231Z,95.65
2023-03-31T02:30:47.187Z,92.08
2023-03-31T02:33:16.704Z,89.90
2023-03-31T02:35:44.733Z,89.59
2023-03-31T02:38:12.783Z,88.31
2023-03-31T02:40:41.995Z,87.95
2023-03-31T02:43:11.909Z,85.37
2023-03-31T02:45:45.250Z,82.96
2023-03-31T02:48:18.854Z,81.06
2023-03-31T02:51:16.587Z,80.62
2023-03-31T02:53:58.479Z,83.37
2023-03-31T02:56:41.898Z,82.25
2023-03-31T02:59:22.058Z,80.06
2023-03-31T03:02:02.559Z,77.50
2023-03-31T03:04:49.754Z,76.80
2023-03-31T03:07:26.826Z,78.77
2023-03-31T03:10:03.621Z,78.75
2023-03-31T03:12:39.189Z,78.79
2023-03-31T03:15:12.075Z,77.03
2023-03-31T03:17:43.672Z,72.07
2023-03-31T03:20:13.968Z,72.75
2023-03-31T03:22:42.225Z,72.19
2023-03-31T03:25:12.848Z,70.36
2023-03-31T03:27:41.661Z,68.02
2023-03-31T03:30:13.265Z,67.56
2023-03-31T03:32:41.513Z,66.57
2023-03-31T03:35:10.532Z,66.17
2023-03-31T03:37:38.512Z,67.09
2023-03-31T03:40:08.300Z,66.89
2023-03-31T03:42:36.725Z,67.53
2023-03-31T03:45:04.972Z,67.43
2023-03-31T03:47:34.361Z,66.58
2023-03-31T03:50:02.304Z,67.10
2023-03-31T03:52:30.350Z,66.91
2023-03-31T03:54:58.270Z,67.57
2023-03-31T03:57:26.469Z,68.37
2023-03-31T03:59:54.523Z,68.78
2023-03-31T04:02:23.631Z,62.96
2023-03-31T04:04:54.491Z,63.03
2023-03-31T04:07:22.716Z,59.76
2023-03-31T04:09:50.875Z,60.07
2023-03-31T04:12:18.888Z,59.09
2023-03-31T04:14:46.863Z,58.46
2023-03-31T04:17:16.002Z,56.14
2023-03-31T04:19:44.118Z,60.64
2023-03-31T04:22:15.599Z,63.54
2023-03-31T04:24:46.981Z,64.56
2023-03-31T04:27:17.468Z,67.53
2023-03-31T04:29:55.024Z,71.59
2023-03-31T04:32:23.234Z,70.45
2023-03-31T04:34:51.761Z,72.15
2023-03-31T04:37:21.082Z,71.70
2023-03-31T04:39:50.713Z,72.37
2023-03-31T04:42:18.674Z,74.08
2023-03-31T04:44:46.529Z,75.96
2023-03-31T04:47:14.507Z,81.17
2023-03-31T04:49:42.400Z,84.85
2023-03-31T04:52:10.392Z,92.63
2023-03-31T04:54:39.711Z,96.12
2023-03-31T04:57:07.700Z,100.00
2023-03-31T04:59:35.618Z,100.00
2023-03-31T05:02:03.579Z,100.00
2023-03-31T05:04:31.600Z,100.00
2023-03-31T05:06:59.818Z,100.00
2023-03-31T05:09:27.707Z,100.00
2023-03-31T05:11:58.155Z,100.00
2023-03-31T05:14:26.277Z,100.00
2023-03-31T05:16:54.326Z,100.00
2023-03-31T05:19:22.242Z,100.00
2023-03-31T05:21:50.332Z,100.00
2023-03-31T05:24:18.886Z,100.00
2023-03-31T05:26:52.532Z,100.00
2023-03-31T05:29:22.020Z,100.00
2023-03-31T05:31:50.105Z,100.00
2023-03-31T05:34:20.679Z,100.00
2023-03-31T05:36:50.603Z,100.00
2023-03-31T05:39:18.766Z,100.00
2023-03-31T05:41:46.666Z,100.00
2023-03-31T05:44:14.802Z,100.00
2023-03-31T05:46:44.393Z,100.00
2023-03-31T05:49:12.592Z,100.00
2023-03-31T05:51:40.554Z,100.00
2023-03-31T05:54:08.895Z,100.00
2023-03-31T05:56:36.971Z,100.00
2023-03-31T05:59:05.451Z,100.00
2023-03-31T06:01:33.897Z,100.00
2023-03-31T06:04:03.357Z,100.00
2023-03-31T06:06:34.030Z,100.00
2023-03-31T06:09:03.428Z,100.00
2023-03-31T06:11:31.596Z,100.00
2023-03-31T06:13:59.587Z,100.00
2023-03-31T06:16:29.077Z,100.00
2023-03-31T06:18:57.211Z,100.00
2023-03-31T06:21:26.666Z,100.00
2023-03-31T06:23:56.212Z,100.00
2023-03-31T06:26:24.143Z,100.00
2023-03-31T06:28:52.122Z,100.00
2023-03-31T06:31:21.689Z,100.00
2023-03-31T06:33:50.721Z,100.00
2023-03-31T06:36:20.397Z,100.00
2023-03-31T06:38:50.636Z,100.00
2023-03-31T06:41:20.775Z,100.00
2023-03-31T06:43:48.848Z,100.00
2023-03-31T06:46:17.569Z,100.00
2023-03-31T06:48:46.118Z,100.00
2023-03-31T06:51:14.712Z,100.00
2023-03-31T06:53:42.747Z,100.00
2023-03-31T06:56:12.260Z,100.00
2023-03-31T06:58:40.180Z,100.00
2023-03-31T07:01:08.549Z,100.00
2023-03-31T07:03:36.952Z,100.00
2023-03-31T07:06:05.236Z,100.00
2023-03-31T07:08:33.192Z,100.00
2023-03-31T07:11:03.829Z,100.00
2023-03-31T07:13:33.435Z,100.00
2023-03-31T07:16:01.353Z,100.00
2023-03-31T07:18:34.410Z,100.00
2023-03-31T07:21:05.614Z,100.00
2023-03-31T07:23:35.049Z,100.00
2023-03-31T07:26:03.031Z,100.00
2023-03-31T07:28:31.262Z,100.00
2023-03-31T07:31:00.574Z,100.00
2023-03-31T07:33:28.562Z,100.00
2023-03-31T07:36:10.885Z,100.00
2023-03-31T07:38:41.293Z,100.00
2023-03-31T07:41:11.977Z,100.00
2023-03-31T07:43:39.996Z,100.00
2023-03-31T07:46:15.931Z,100.00
2023-03-31T07:48:44.037Z,100.00
2023-03-31T07:51:11.974Z,100.00
2023-03-31T07:53:39.863Z,100.00
2023-03-31T07:56:08.187Z,100.00
2023-03-31T07:58:36.507Z,99.92
2023-03-31T08:01:05.354Z,100.00
2023-03-31T08:03:37.270Z,97.63
2023-03-31T08:06:05.741Z,95.55
2023-03-31T08:08:33.977Z,92.25
2023-03-31T08:11:01.909Z,93.21
2023-03-31T08:13:29.850Z,91.53
2023-03-31T08:15:57.819Z,87.25
2023-03-31T08:18:26.246Z,88.07
2023-03-31T08:20:55.582Z,87.70
2023-03-31T08:23:23.551Z,88.59
2023-03-31T08:25:51.500Z,86.04
2023-03-31T08:31:05.210Z,84.06
2023-03-31T08:33:33.406Z,82.89
2023-03-31T08:36:06.505Z,82.94
2023-03-31T08:38:34.610Z,81.12
2023-03-31T08:41:03.428Z,81.08
2023-03-31T08:43:34.826Z,79.91
2023-03-31T08:46:04.248Z,81.19
2023-03-31T08:48:37.647Z,76.78
2023-03-31T08:51:14.139Z,74.51
2023-03-31T08:53:48.440Z,77.32
2023-03-31T08:56:19.596Z,77.55
2023-03-31T09:01:56.808Z,78.12
2023-03-31T09:05:09.587Z,76.10
2023-03-31T09:07:51.296Z,78.90
2023-03-31T09:10:30.328Z,75.23
2023-03-31T09:13:06.134Z,74.07
2023-03-31T09:15:40.538Z,77.45
2023-03-31T09:18:19.114Z,77.43
2023-03-31T09:20:52.756Z,74.48
2023-03-31T09:23:29.279Z,72.62
2023-03-31T09:25:59.109Z,72.56
2023-03-31T09:28:32.229Z,72.36
2023-03-31T09:31:00.987Z,72.92
2023-03-31T09:33:33.599Z,71.39
2023-03-31T09:36:02.088Z,72.38
2023-03-31T09:38:31.650Z,66.68
2023-03-31T09:41:01.390Z,65.50
2023-03-31T09:43:31.639Z,62.93
2023-03-31T09:46:09.102Z,61.73
2023-03-31T09:48:39.036Z,63.96
2023-03-31T09:51:11.466Z,60.15
2023-03-31T09:53:45.282Z,62.91
2023-03-31T09:56:14.168Z,61.78
2023-03-31T09:58:43.729Z,59.17
2023-03-31T10:01:13.904Z,58.88
2023-03-31T10:03:50.959Z,59.62
2023-03-31T10:06:19.647Z,57.35
2023-03-31T10:08:55.561Z,56.67
2023-03-31T10:11:24.282Z,56.22
2023-03-31T10:13:59.100Z,59.09
2023-03-31T10:16:31.432Z,57.72
2023-03-31T10:19:14.763Z,56.25
2023-03-31T10:21:47.692Z,56.49
2023-03-31T10:24:20.808Z,57.17
2023-03-31T10:26:50.385Z,57.47
2023-03-31T10:29:25.690Z,58.28
2023-03-31T10:31:54.283Z,58.23
2023-03-31T13:36:34.207Z,100.00
2023-03-31T13:39:49.933Z,100.00
2023-03-31T13:42:58.403Z,100.00
2023-03-31T13:45:49.396Z,99.24
2023-03-31T13:48:31.149Z,99.23
2023-03-31T13:51:27.849Z,100.00
2023-03-31T13:54:13.081Z,100.00
2023-03-31T13:57:14.348Z,100.00
2023-03-31T14:00:13.278Z,100.00
2023-03-31T14:03:29.025Z,100.00
2023-03-31T14:06:10.070Z,100.00
2023-03-31T14:08:57.303Z,100.00
2023-03-31T14:11:27.231Z,100.00
2023-03-31T14:14:06.040Z,100.00
2023-03-31T14:16:40.838Z,100.00
2023-03-31T14:19:43.937Z,100.00
2023-03-31T14:22:20.594Z,100.00
2023-03-31T14:24:56.328Z,100.00
2023-03-31T14:27:50.431Z,100.00
2023-03-31T14:30:33.719Z,100.00
2023-03-31T14:33:21.834Z,100.00
2023-03-31T14:35:58.132Z,100.00
2023-03-31T14:38:33.388Z,100.00
2023-03-31T14:41:04.817Z,100.00
2023-03-31T14:43:35.821Z,100.00
2023-03-31T14:46:41.640Z,98.99
2023-03-31T14:49:44.627Z,95.89
2023-03-31T14:56:39.493Z,92.21
2023-03-31T14:59:18.624Z,91.30
2023-03-31T15:04:58.419Z,83.49
2023-03-31T15:07:27.992Z,84.45
2023-03-31T15:09:56.188Z,83.03
2023-03-31T15:12:24.703Z,85.94
2023-03-31T15:14:56.106Z,85.76
2023-03-31T15:17:29.146Z,86.49
2023-03-31T15:19:58.843Z,87.35
2023-03-31T15:22:28.310Z,87.92
2023-03-31T15:24:56.983Z,86.42
2023-03-31T15:27:37.420Z,87.57
2023-03-31T15:30:09.145Z,88.02
2023-03-31T15:32:41.059Z,85.34
2023-03-31T15:35:22.430Z,84.76
2023-03-31T15:37:53.272Z,83.80
2023-03-31T15:40:24.432Z,83.68
2023-03-31T15:43:06.391Z,81.06
2023-03-31T15:45:53.242Z,80.09
2023-03-31T15:48:28.512Z,82.39
2023-03-31T15:51:02.696Z,78.68
2023-03-31T15:53:33.510Z,78.24
2023-03-31T15:56:02.033Z,81.30
2023-03-31T15:59:00.395Z,78.01
2023-03-31T16:01:35.078Z,79.75
2023-03-31T16:04:10.008Z,77.94
2023-03-31T16:06:45.316Z,79.00
2023-03-31T16:09:17.608Z,78.18
2023-03-31T16:11:49.428Z,79.21
2023-03-31T16:14:31.355Z,78.21
2023-03-31T16:17:03.049Z,81.13
2023-03-31T16:19:40.216Z,78.45
2023-03-31T16:22:09.907Z,77.12
2023-03-31T16:24:37.996Z,77.34
2023-03-31T16:27:09.553Z,79.59
2023-03-31T16:29:39.520Z,78.48
2023-03-31T16:32:09.934Z,79.11
2023-03-31T16:34:53.488Z,79.45
2023-03-31T16:37:21.977Z,80.13
2023-03-31T16:39:50.064Z,78.64
2023-03-31T16:42:18.424Z,79.58
2023-03-31T16:44:52.893Z,78.00
2023-03-31T16:47:35.052Z,77.71
2023-03-31T16:50:11.700Z,78.85
2023-03-31T16:52:40.407Z,79.25
2023-03-31T16:55:24.855Z,79.28
2023-03-31T16:58:04.996Z,78.64
2023-03-31T17:00:37.847Z,80.34
2023-03-31T17:03:11.832Z,79.84
2023-03-31T17:05:43.906Z,80.28
2023-03-31T17:08:17.003Z,79.41
2023-03-31T17:10:54.131Z,78.83
2023-03-31T17:16:47.401Z,77.08
2023-03-31T17:22:35.258Z,79.15
2023-03-31T17:25:09.724Z,77.56
2023-03-31T17:27:37.980Z,78.92
2023-03-31T17:30:10.153Z,78.43
2023-03-31T17:32:43.005Z,79.69
2023-03-31T17:35:13.584Z,78.18
2023-03-31T17:37:44.803Z,77.91
2023-03-31T17:40:15.604Z,79.30
2023-03-31T17:46:01.537Z,81.94
2023-03-31T17:48:41.521Z,82.69
2023-03-31T17:51:47.092Z,82.99
2023-03-31T17:54:24.675Z,81.94
2023-03-31T17:56:52.890Z,82.92
2023-03-31T17:59:21.333Z,82.13
2023-03-31T18:01:50.239Z,79.05
2023-03-31T18:04:18.584Z,79.42
2023-03-31T18:06:48.714Z,78.59
2023-03-31T18:09:18.310Z,79.69
2023-03-31T18:11:47.504Z,77.70
2023-03-31T18:14:15.569Z,78.94
2023-03-31T18:16:43.640Z,78.84
2023-03-31T18:19:11.769Z,78.53
2023-03-31T18:21:39.943Z,78.28
2023-03-31T18:24:09.894Z,78.77
2023-03-31T18:26:42.693Z,78.46
2023-03-31T18:29:10.799Z,78.67
2023-03-31T18:31:39.404Z,79.14
2023-03-31T18:34:07.749Z,79.48
2023-03-31T18:36:37.482Z,79.25
2023-03-31T18:39:05.708Z,80.70
2023-03-31T18:41:34.232Z,79.35
2023-03-31T18:44:04.358Z,79.16
2023-03-31T18:46:32.925Z,79.08
2023-03-31T18:49:01.211Z,78.66
2023-03-31T18:51:29.964Z,78.62
2023-03-31T18:53:59.557Z,79.26
2023-03-31T18:56:29.680Z,79.57
2023-03-31T18:59:00.048Z,79.23
2023-03-31T19:01:47.892Z,80.10
2023-03-31T19:04:16.287Z,80.34
2023-03-31T19:06:44.379Z,79.62
2023-03-31T19:09:15.881Z,79.49
2023-03-31T19:12:08.895Z,80.57
2023-03-31T19:15:57.211Z,80.28
2023-03-31T19:19:13.233Z,81.12
2023-03-31T19:21:46.356Z,81.37
2023-03-31T19:24:33.733Z,80.86
2023-03-31T19:27:25.630Z,81.49
2023-03-31T19:30:05.403Z,82.60
2023-03-31T19:32:37.116Z,81.86
2023-03-31T19:39:27.072Z,82.73
2023-03-31T19:42:11.405Z,82.05
2023-03-31T19:44:49.657Z,82.23
2023-03-31T19:47:18.199Z,83.43
2023-03-31T19:49:46.688Z,82.85
2023-03-31T19:52:17.881Z,83.66
2023-03-31T19:54:48.169Z,82.84
2023-03-31T19:57:43.292Z,82.51
2023-03-31T20:00:18.367Z,82.36
2023-03-31T20:02:49.769Z,83.54
2023-03-31T20:05:47.349Z,84.36
2023-03-31T20:09:07.308Z,85.01
2023-03-31T20:11:42.787Z,84.48
2023-03-31T20:14:17.587Z,84.80
2023-03-31T20:16:49.288Z,83.77
2023-03-31T20:19:18.172Z,84.12
2023-03-31T20:22:07.651Z,83.32
2023-03-31T20:24:40.919Z,83.45
2023-03-31T20:27:54.306Z,82.81
2023-03-31T20:30:22.610Z,83.60
2023-03-31T20:32:53.380Z,86.12
2023-03-31T20:36:06.453Z,84.84
2023-03-31T20:38:40.271Z,85.34
2023-03-31T20:44:50.722Z,89.81
2023-03-31T20:47:40.606Z,90.67
2023-03-31T20:50:09.883Z,92.97
2023-03-31T20:52:42.541Z,93.03
2023-03-31T21:04:24.824Z,92.02
2023-03-31T21:13:40.135Z,91.27
2023-03-31T21:16:46.311Z,89.68
2023-03-31T21:19:30.858Z,89.95
2023-03-31T21:22:53.329Z,90.36
2023-03-31T21:28:02.747Z,89.50
2023-03-31T21:30:32.899Z,89.75
2023-03-31T21:33:13.004Z,88.63
2023-03-31T21:35:56.657Z,87.50
2023-03-31T21:38:38.243Z,88.35
2023-03-31T21:42:10.692Z,87.25
2023-03-31T21:44:47.866Z,91.99
2023-03-31T21:47:16.074Z,90.06
2023-03-31T21:49:44.192Z,92.70
2023-03-31T21:52:17.893Z,94.09
2023-03-31T21:54:48.038Z,94.73
2023-03-31T22:03:33.179Z,100.00
2023-03-31T22:06:02.687Z,100.00
2023-03-31T22:08:32.948Z,100.00
2023-03-31T22:11:01.928Z,100.00
2023-03-31T22:13:31.161Z,100.00
2023-03-31T22:16:02.131Z,100.00
2023-03-31T22:18:31.259Z,100.00
2023-03-31T22:21:01.125Z,100.00
2023-03-31T22:23:29.388Z,100.00
2023-03-31T22:25:59.675Z,100.00
2023-03-31T22:28:36.000Z,100.00
2023-03-31T22:31:04.149Z,100.00
2023-03-31T22:33:32.275Z,100.00
2023-03-31T22:36:00.621Z,100.00
2023-03-31T22:38:29.032Z,100.00
2023-03-31T22:40:58.603Z,100.00
2023-03-31T22:43:27.357Z,100.00
2023-03-31T22:45:55.403Z,100.00
2023-03-31T22:48:23.623Z,100.00
2023-03-31T22:50:51.673Z,100.00
2023-03-31T22:53:19.761Z,100.00
2023-03-31T22:55:53.730Z,100.00
2023-03-31T22:58:24.267Z,100.00
2023-03-31T23:01:01.790Z,100.00
2023-03-31T23:03:30.324Z,100.00
2023-03-31T23:05:58.474Z,100.00
2023-03-31T23:08:26.579Z,100.00
2023-03-31T23:10:58.852Z,100.00
2023-03-31T23:13:29.101Z,100.00
2023-03-31T23:15:57.237Z,100.00
2023-03-31T23:18:25.853Z,100.00
2023-03-31T23:20:53.941Z,100.00
2023-03-31T23:23:22.075Z,100.00
2023-03-31T23:25:50.253Z,100.00
2023-03-31T23:28:18.622Z,100.00
2023-03-31T23:30:56.759Z,100.00
2023-03-31T23:33:25.724Z,100.00
2023-03-31T23:35:54.147Z,100.00
2023-03-31T23:38:22.563Z,100.00
2023-03-31T23:40:50.821Z,100.00
2023-03-31T23:43:18.877Z,100.00
2023-03-31T23:45:47.037Z,100.00
2023-03-31T23:48:17.037Z,100.00
2023-03-31T23:50:45.468Z,100.00
2023-03-31T23:53:14.113Z,100.00
2023-03-31T23:55:42.315Z,100.00
2023-03-31T23:58:10.563Z,100.00
